Terminal Aerodrome Forecast
Issued by NWS St Louis, MO

Home | Current Version | Previous Version | Text Only | Print | Product List | Glossary On
Versions: 1 2 3 4 5 6 7 8 9 10 11 12 13 14 15 16 17 18 19 20 21 22 23 24 25 26 27 28
741
FTUS43 KLSX 161458 AAA
TAFSTL
TAF AMD
KSTL 161458Z 1615/1718 15005KT P6SM VCSH BKN050
      TEMPO 1616/1618 3SM -SHRA BKN020
     FM161900 16007KT P6SM VCTS BKN050CB
     FM162300 18007KT P6SM BKN050
     FM170400 19007KT 6SM -SHRA VCTS BKN040CB
     FM170900 22005KT P6SM BKN040=

USA.gov is the U.S. government's official web portal to all federal, state and local government web resources and services.